createdAt,value
2022-08-19T08:19:46.596Z,58.20
2022-08-19T08:34:56.560Z,58.40
2022-08-19T08:50:05.098Z,56.50
2022-08-19T09:05:16.451Z,55.70
2022-08-19T09:20:24.232Z,55.40
2022-08-19T09:35:32.336Z,55.10
2022-08-19T09:50:54.908Z,55.00
2022-08-19T10:06:01.457Z,55.00
2022-08-19T10:21:11.597Z,54.80
2022-08-19T10:36:19.681Z,54.30
2022-08-19T10:51:45.842Z,52.70
2022-08-19T11:06:53.548Z,52.30
2022-08-19T11:22:00.196Z,52.10
2022-08-19T11:37:06.801Z,51.70
2022-08-19T11:52:11.739Z,51.20
2022-08-19T12:07:16.527Z,50.70
2022-08-19T12:22:21.728Z,50.70
2022-08-19T12:37:26.499Z,50.70
2022-08-19T12:52:31.400Z,50.10
2022-08-19T13:07:36.161Z,49.40
2022-08-19T13:22:40.889Z,49.40
2022-08-19T13:37:46.377Z,49.20
2022-08-19T13:52:51.147Z,50.20
2022-08-19T14:07:59.250Z,49.10
2022-08-19T14:23:04.140Z,48.90
2022-08-19T14:38:17.212Z,48.20
2022-08-19T14:53:21.976Z,49.30
2022-08-19T15:08:27.153Z,50.80
2022-08-19T15:23:32.516Z,51.50
2022-08-19T15:38:40.274Z,51.60
2022-08-19T15:53:46.860Z,51.10
2022-08-19T16:08:51.500Z,51.80
2022-08-19T16:23:56.582Z,52.10
2022-08-19T16:39:01.725Z,53.50
2022-08-19T16:54:07.153Z,54.30
2022-08-19T17:09:12.049Z,54.60
2022-08-19T17:24:16.668Z,54.80
2022-08-19T17:39:21.268Z,55.20
2022-08-19T17:54:26.026Z,55.40
2022-08-19T18:09:42.123Z,55.80
2022-08-19T18:24:47.190Z,54.90
2022-08-19T18:40:10.930Z,54.80
2022-08-19T18:55:17.990Z,54.90
